Pagrindinis puslapis
METAR-TAF:

METAR-TAF

Oro uostai :

Ušuaja, Argentina

platuma: 54-48S, ilguma: 068-19W, Aukštis: 16 m

Dabartinis oras

Ataskaita buvo paskelbta 25 minutes, ne 01:00 UTC
Vėjas 17 kt iš Šiaurės Vakarų
Temperatūra 7°C
Drėgmė 53%
Slėgis 982 hPa
Matomumas 10 km arba daugiau
Mažai debesys ne aukštis 4500 ft

METAR: SAWH 050100Z 32017KT 9999 FEW045 07/M02 Q0982

Laikas: 22:25 (01:25 UTC)

Prognozė

Ataskaita buvo paskelbta 8 valandos ir 25 minutes, ne 17:00 UTC
Prognozė galioja nuo 04 metu 18 UTC su 05 metu 18 UTC
Vėjas 2 kt iš Šiaurės/Šiaurės Vakarų
Matomumas 10 km arba daugiau
Išsisklaidę debesys ne aukštis 4000 ft
Išsisklaidę debesys ne aukštis 10000 ft
Tapsmas
nuo 05 metu 00 UTC su 05 metu 02 UTC
Vėjas 10 kt iš Šiaurės/Šiaurės Vakarų
Išsisklaidę debesys ne aukštis 3000 ft
Su prošvaistėmis ne aukštis 7000 ft

TAF: SAWH 041700Z 0418/0518 34002KT 9999 SCT040 SCT100 TX11/0418Z TN04/0511Z BECMG 0500/0502 34010KT SCT030 BKN070

Orai ataskaitas ir orų prognozės (METAR, TAF).

turimą stotys yra geltonos ir raudonos taškus žemėlapyje.

Perkelti pele per norėdami pamatyti stoties vardą.

Tada spustelėkite, norėdami matyti oro stebėjimo ir prognozės.

Norėdami pakeisti žemėlapį: spustelėkite ant žalios mygtukų su juodo kryžiaus žemyn,; žalią mygtuką su brūkšneliu, jei norite nutolinti; arba žalių rodyklių gretimoms žemėlapius.


METAR-TAF: